Main page
METAR-TAF:

METAR-TAF

Airports :

Lubbock Preston Smith International Airport

Lubbock, Texas, United States

latitude: 33-40-03N, longitude: 101-49-17W, elevation: 3280 ft

Current weather observation

The report was made 18 minutes ago, at 12:28 UTC
Wind 12 mph from the East
Temperature 46°F
Humidity 93%
Pressure 30.40 in. Hg
Visibility: 3 miles
Overcast at a height of 500 ft
light rain, mist

METAR: KLBB 181228Z 10010KT 3SM -RA BR OVC005 08/07 A3040 RMK AO2 CIG 003V010 P0002 T00780072

Time: 07:46 (12:46 UTC)

Forecast

The report was made 1 hour and 24 minutes ago, at 11:22 UTC
Forecast valid from 18 at 12 UTC to 19 at 12 UTC
Wind 13 mph from the East
Visibility: 4 miles
Overcast at a height of 600 ft
light rain, mist
From 19 at 0800 UTC
Wind 6 mph from variable directions
Visibility: 1 miles
Overcast at a height of 400 ft
mist

TAF: KLBB 181122Z 1812/1912 09011KT 4SM -RA BR OVC006 FM190800 VRB05KT 1SM BR OVC004

Weather observations and forecasts of more than 4000 airports (METAR and TAF reports).

The available stations are represented by yellow and red dots on the map.

Hover mouse over dot to see the name of the station.

Then click to see weather observations and forecasts.

To change the map : click on the green buttons with a black cross to zoom in, on the green button with a dash to zoom out, or on the green arrows for adjacent maps.


METAR-TAF: